Time;durP1;ratioP1;P1;durP2;ratioP2;P2;SDS_P1;SDS_P2;PMS_P1;PMS_P2;Temp;Humidity;BMP_temperature;BMP_pressure;BME280_temperature;BME280_humidity;BME280_pressure;Samples;Min_cycle;Max_cycle;Signal;HPM_P1;HPM_P2
2022/12/07 00:01:21;;;;;;;32.10;18.80;;;3.10;95.40;;;;;;5038146;28;20173;-94
2022/12/07 00:03:49;;;;;;;28.90;20.50;;;3.20;95.40;;;;;;5037674;28;20180;-92
2022/12/07 00:06:18;;;;;;;25.40;18.77;;;3.20;95.40;;;;;;5038302;28;20238;-94
2022/12/07 00:08:48;;;;;;;27.53;19.97;;;3.20;95.30;;;;;;5038276;28;20201;-94
2022/12/07 00:11:17;;;;;;;25.10;18.57;;;3.20;95.30;;;;;;5038067;28;20202;-94
2022/12/07 00:13:57;;;;;;;24.23;18.17;;;3.20;95.30;;;;;;5038131;28;20196;-95
2022/12/07 00:16:26;;;;;;;23.73;17.13;;;3.20;95.30;;;;;;5035891;28;20204;-92
2022/12/07 00:18:52;;;;;;;24.30;17.40;;;3.20;95.20;;;;;;5021218;28;20216;-92
2022/12/07 00:21:30;;;;;;;29.10;18.47;;;3.20;95.30;;;;;;5019607;28;20174;-92
2022/12/07 00:23:56;;;;;;;29.63;19.37;;;3.20;95.20;;;;;;5017643;28;20287;-92
2022/12/07 00:26:25;;;;;;;28.40;18.23;;;3.10;95.20;;;;;;5018844;28;20181;-92
2022/12/07 00:28:56;;;;;;;26.13;19.27;;;3.10;95.20;;;;;;5020073;28;20548;-92
2022/12/07 00:31:25;;;;;;;24.83;17.77;;;3.10;95.20;;;;;;5019635;28;20209;-91
2022/12/07 00:33:51;;;;;;;22.07;16.97;;;3.10;95.20;;;;;;5029893;28;20177;-94
2022/12/07 00:36:19;;;;;;;23.03;16.80;;;3.00;95.30;;;;;;5036559;28;20186;-94
2022/12/07 00:38:45;;;;;;;26.63;18.23;;;3.00;95.20;;;;;;5033587;28;20245;-94
2022/12/07 00:41:13;;;;;;;20.10;15.37;;;3.10;95.30;;;;;;5040551;28;20196;-93
2022/12/07 00:43:40;;;;;;;26.00;15.93;;;3.10;95.30;;;;;;5041727;28;20185;-90
2022/12/07 00:46:06;;;;;;;23.23;17.13;;;3.10;95.30;;;;;;5038938;28;20190;-94
2022/12/07 00:48:32;;;;;;;24.30;16.60;;;3.10;95.30;;;;;;5033106;28;20183;-94
2022/12/07 00:50:58;;;;;;;22.17;16.50;;;3.10;95.30;;;;;;5040844;28;20201;-94
2022/12/07 00:53:26;;;;;;;23.83;14.70;;;3.20;95.30;;;;;;5041737;28;20182;-93
2022/12/07 00:55:52;;;;;;;20.10;14.13;;;3.20;95.40;;;;;;5041426;28;20185;-94
2022/12/07 00:58:19;;;;;;;22.67;14.67;;;3.30;95.40;;;;;;5041443;28;20166;-91
2022/12/07 01:00:45;;;;;;;27.40;14.17;;;3.20;95.30;;;;;;5041539;28;20177;-94
2022/12/07 01:03:17;;;;;;;15.27;13.33;;;3.20;95.30;;;;;;5041380;28;20203;-93
2022/12/07 01:05:54;;;;;;;24.57;13.70;;;3.20;95.30;;;;;;5041366;28;20180;-91
2022/12/07 01:08:23;;;;;;;20.13;13.20;;;3.20;95.30;;;;;;5161130;22;20225;-93
2022/12/07 01:10:48;;;;;;;17.30;12.33;;;3.20;95.30;;;;;;5042622;28;20165;-93
2022/12/07 01:13:15;;;;;;;20.90;11.93;;;3.20;95.20;;;;;;5041409;28;20221;-94
2022/12/07 01:15:42;;;;;;;16.60;12.77;;;3.20;95.20;;;;;;5041362;28;20166;-93
2022/12/07 01:18:08;;;;;;;16.43;12.33;;;3.30;95.20;;;;;;5041333;28;20181;-92
2022/12/07 01:20:34;;;;;;;19.37;12.33;;;3.30;95.20;;;;;;5041127;28;20179;-94
2022/12/07 01:23:03;;;;;;;20.37;14.47;;;3.30;95.10;;;;;;5040922;28;20174;-92
2022/12/07 01:25:29;;;;;;;21.53;13.87;;;3.20;95.10;;;;;;5038868;28;20186;-94
2022/12/07 01:27:55;;;;;;;20.37;13.50;;;3.20;95.00;;;;;;5034103;28;20162;-93
2022/12/07 01:30:20;;;;;;;20.60;13.00;;;3.10;95.00;;;;;;5036810;28;20260;-93
2022/12/07 01:32:58;;;;;;;22.23;13.50;;;3.10;95.00;;;;;;5035629;28;20196;-93
2022/12/07 01:35:24;;;;;;;19.33;11.70;;;3.00;94.90;;;;;;5036308;28;20177;-94
2022/12/07 01:37:50;;;;;;;16.00;11.20;;;3.00;94.90;;;;;;5038060;28;20165;-95
2022/12/07 01:40:18;;;;;;;18.60;11.40;;;2.90;94.90;;;;;;5377052;22;20213;-94
2022/12/07 01:42:44;;;;;;;19.73;11.33;;;2.90;94.90;;;;;;5036944;28;20182;-94
2022/12/07 01:45:18;;;;;;;15.60;11.10;;;2.90;94.90;;;;;;5049710;22;20260;-94
2022/12/07 01:48:17;;;;;;;15.63;11.07;;;2.80;94.90;;;;;;5137526;22;20229;-94
2022/12/07 01:50:47;;;;;;;19.07;9.53;;;2.80;94.90;;;;;;5015229;28;20218;-92
2022/12/07 01:53:13;;;;;;;15.67;9.80;;;2.80;94.90;;;;;;5020495;28;20190;-91
2022/12/07 01:55:42;;;;;;;13.33;8.50;;;2.80;94.90;;;;;;5020794;28;20177;-93
2022/12/07 01:58:08;;;;;;;16.40;9.07;;;2.70;94.90;;;;;;5020736;28;20168;-92
2022/12/07 02:00:36;;;;;;;22.87;8.77;;;2.70;94.90;;;;;;5020672;28;20171;-93
2022/12/07 02:03:19;;;;;;;14.63;8.00;;;2.60;94.80;;;;;;5020758;28;20165;-92
2022/12/07 02:05:47;;;;;;;7.93;7.10;;;2.70;94.90;;;;;;5020700;28;20231;-92
2022/12/07 02:08:13;;;;;;;10.80;7.00;;;2.80;94.90;;;;;;5020538;28;20171;-89
2022/12/07 02:10:40;;;;;;;10.53;6.97;;;2.80;94.80;;;;;;5020454;28;20181;-92
2022/12/07 02:13:11;;;;;;;8.77;7.10;;;2.80;94.70;;;;;;5020389;28;20185;-90
2022/12/07 02:16:01;;;;;;;11.20;8.60;;;2.80;94.60;;;;;;5020487;28;20234;-92
2022/12/07 02:18:59;;;;;;;17.47;6.67;;;2.80;94.50;;;;;;5020507;28;20198;-92
2022/12/07 02:21:45;;;;;;;9.23;5.67;;;2.80;94.40;;;;;;5020426;28;20177;-91
2022/12/07 02:24:25;;;;;;;10.90;6.00;;;2.70;94.30;;;;;;5020292;28;20182;-91
2022/12/07 02:27:12;;;;;;;9.10;6.13;;;2.60;94.30;;;;;;5020272;28;20181;-91
2022/12/07 02:29:58;;;;;;;11.20;5.60;;;2.60;94.30;;;;;;5020177;28;20197;-92
2022/12/07 02:32:43;;;;;;;7.60;5.23;;;2.70;94.30;;;;;;5020295;28;20162;-93
2022/12/07 02:35:11;;;;;;;8.40;5.30;;;2.70;94.20;;;;;;5020039;28;20186;-91
2022/12/07 02:38:04;;;;;;;8.27;5.10;;;2.60;94.20;;;;;;5019963;28;20170;-90
2022/12/07 02:40:39;;;;;;;7.57;5.07;;;2.60;94.10;;;;;;5019104;28;20161;-91
2022/12/07 02:43:08;;;;;;;8.47;5.10;;;2.60;94.10;;;;;;5019878;28;20233;-91
2022/12/07 02:45:38;;;;;;;12.47;5.50;;;2.60;94.10;;;;;;5019863;28;20178;-90
2022/12/07 02:48:07;;;;;;;8.13;4.83;;;2.60;94.10;;;;;;5019755;28;20261;-92
2022/12/07 02:50:32;;;;;;;10.80;5.70;;;2.60;94.10;;;;;;5019830;28;20232;-92
2022/12/07 02:52:58;;;;;;;17.90;5.40;;;2.60;94.10;;;;;;5019722;28;20170;-92
2022/12/07 02:55:38;;;;;;;13.90;5.30;;;2.80;94.20;;;;;;5019647;28;20194;-93
2022/12/07 02:58:15;;;;;;;7.07;5.00;;;2.80;94.20;;;;;;5019737;28;20189;-92
2022/12/07 03:01:05;;;;;;;9.70;5.23;;;2.80;94.10;;;;;;5019762;28;20158;-92
2022/12/07 03:03:32;;;;;;;10.53;4.80;;;2.70;94.10;;;;;;5019622;28;20182;-92
2022/12/07 03:06:20;;;;;;;14.20;5.30;;;2.70;94.20;;;;;;5019552;28;20175;-92
2022/12/07 03:09:12;;;;;;;10.73;5.70;;;2.60;94.10;;;;;;5019460;28;20162;-92
2022/12/07 03:11:53;;;;;;;7.53;5.43;;;2.70;94.20;;;;;;5019464;28;20266;-93
2022/12/07 03:14:30;;;;;;;8.73;4.97;;;2.60;94.10;;;;;;5019894;28;20178;-90
2022/12/07 03:17:04;;;;;;;12.10;5.80;;;2.50;94.10;;;;;;5019519;28;20166;-91
2022/12/07 03:19:32;;;;;;;12.20;5.60;;;2.50;94.10;;;;;;5019993;28;20214;-92
2022/12/07 03:22:02;;;;;;;10.90;4.87;;;2.50;94.20;;;;;;5019360;28;21148;-93
2022/12/07 03:24:35;;;;;;;8.23;5.17;;;2.40;94.10;;;;;;5019179;28;20178;-92
2022/12/07 03:27:09;;;;;;;12.33;5.20;;;2.40;94.10;;;;;;5019312;28;20174;-92
2022/12/07 03:29:40;;;;;;;7.80;6.03;;;2.40;94.20;;;;;;5019114;28;20170;-93
2022/12/07 03:32:20;;;;;;;8.33;6.00;;;2.40;94.20;;;;;;5019131;28;20173;-92
2022/12/07 03:34:58;;;;;;;8.40;5.53;;;2.40;94.20;;;;;;5019029;28;20210;-92
2022/12/07 03:37:34;;;;;;;8.47;5.40;;;2.40;94.10;;;;;;5019090;28;20176;-89
2022/12/07 03:40:19;;;;;;;8.77;6.07;;;2.40;94.20;;;;;;5019012;28;20173;-91
2022/12/07 03:42:45;;;;;;;10.87;6.13;;;2.30;94.10;;;;;;5019009;28;20194;-93
2022/12/07 03:45:12;;;;;;;6.53;5.53;;;2.40;94.10;;;;;;5018842;28;20189;-92
2022/12/07 03:47:53;;;;;;;15.70;6.00;;;2.40;94.10;;;;;;5018896;28;20206;-91
2022/12/07 03:50:34;;;;;;;12.47;5.90;;;2.40;94.00;;;;;;5018641;28;20189;-93
2022/12/07 03:53:13;;;;;;;15.23;6.07;;;2.40;94.00;;;;;;5018869;28;20166;-92
2022/12/07 03:55:43;;;;;;;6.47;5.63;;;2.40;93.90;;;;;;5018836;28;20181;-91
2022/12/07 03:58:16;;;;;;;8.03;6.53;;;2.30;93.90;;;;;;5018817;28;20159;-92
2022/12/07 04:00:43;;;;;;;9.33;6.70;;;2.30;93.90;;;;;;5018596;28;20158;-93
2022/12/07 04:03:10;;;;;;;13.43;6.70;;;2.30;93.80;;;;;;5018775;28;20182;-92
2022/12/07 04:05:36;;;;;;;10.63;7.83;;;2.30;93.80;;;;;;5018699;28;20274;-93
2022/12/07 04:08:01;;;;;;;13.10;6.93;;;2.30;93.80;;;;;;5018854;28;20201;-92
2022/12/07 04:10:27;;;;;;;13.93;6.63;;;2.30;93.80;;;;;;5018473;28;20213;-92
2022/12/07 04:12:53;;;;;;;13.73;6.67;;;2.30;93.70;;;;;;5018547;28;20189;-91
2022/12/07 04:15:18;;;;;;;7.33;6.20;;;2.30;93.70;;;;;;5018648;28;20166;-91
2022/12/07 04:17:44;;;;;;;9.00;7.07;;;2.30;93.70;;;;;;5018531;28;20246;-92
2022/12/07 04:20:11;;;;;;;7.00;6.30;;;2.40;93.70;;;;;;5018625;28;20197;-92
2022/12/07 04:22:36;;;;;;;9.27;6.47;;;2.40;93.70;;;;;;5018590;28;20194;-92
2022/12/07 04:25:02;;;;;;;6.10;5.70;;;2.30;93.60;;;;;;5019064;28;20197;-92
2022/12/07 04:27:28;;;;;;;10.33;6.13;;;2.30;93.50;;;;;;5018447;28;20169;-93
2022/12/07 04:29:55;;;;;;;6.27;5.70;;;2.30;93.50;;;;;;5018458;28;20202;-93
2022/12/07 04:32:21;;;;;;;10.33;6.90;;;2.20;93.40;;;;;;5018429;28;20185;-93
2022/12/07 04:34:46;;;;;;;6.30;5.70;;;2.20;93.40;;;;;;5018302;28;20201;-93
2022/12/07 04:37:12;;;;;;;10.63;5.60;;;2.30;93.50;;;;;;5018218;28;20167;-94
2022/12/07 04:39:37;;;;;;;9.67;7.33;;;2.30;93.30;;;;;;5018266;28;20212;-93
2022/12/07 04:42:04;;;;;;;8.03;6.50;;;2.20;93.20;;;;;;5018407;28;20257;-93
2022/12/07 04:44:30;;;;;;;7.33;6.63;;;2.20;93.20;;;;;;5018035;28;20206;-93
2022/12/07 04:46:56;;;;;;;6.83;6.23;;;2.20;93.10;;;;;;5018221;28;20186;-93
2022/12/07 04:49:23;;;;;;;8.07;6.73;;;2.10;93.00;;;;;;5018179;28;20170;-92
2022/12/07 04:51:49;;;;;;;8.47;7.23;;;2.00;92.90;;;;;;5017960;28;20182;-92
2022/12/07 04:54:15;;;;;;;8.33;7.20;;;2.00;92.80;;;;;;5018056;28;20190;-92
2022/12/07 04:56:42;;;;;;;12.50;6.97;;;2.00;92.80;;;;;;5018495;28;20180;-93
2022/12/07 04:59:09;;;;;;;8.93;6.40;;;1.80;92.70;;;;;;5018301;28;20174;-92
2022/12/07 05:01:34;;;;;;;7.70;7.07;;;1.80;92.70;;;;;;5018260;28;20233;-91
2022/12/07 05:04:00;;;;;;;9.17;7.23;;;1.70;92.80;;;;;;5021189;28;20210;-91
2022/12/07 05:06:26;;;;;;;7.67;6.60;;;1.60;92.80;;;;;;5021895;28;20170;-93
2022/12/07 05:08:52;;;;;;;7.80;6.73;;;1.60;92.90;;;;;;5021880;28;20159;-92
2022/12/07 05:14:04;;;;;;;10.40;6.80;;;1.60;92.90;;;;;;5022243;28;20185;-94
2022/12/07 05:16:30;;;;;;;9.70;6.67;;;1.50;92.90;;;;;;5021664;28;20169;-92
2022/12/07 05:18:56;;;;;;;7.27;6.57;;;1.50;93.00;;;;;;5021460;28;20193;-91
2022/12/07 05:21:22;;;;;;;10.40;7.17;;;1.50;93.10;;;;;;5021545;28;20181;-92
2022/12/07 05:23:48;;;;;;;9.30;7.17;;;1.60;93.00;;;;;;5021407;28;20185;-91
2022/12/07 05:26:14;;;;;;;11.50;7.10;;;1.50;93.00;;;;;;5021275;28;20172;-93
2022/12/07 05:28:39;;;;;;;9.83;7.13;;;1.50;93.00;;;;;;5021212;28;20165;-92
2022/12/07 05:31:05;;;;;;;11.20;8.33;;;1.50;93.00;;;;;;5021193;28;20194;-93
2022/12/07 05:33:30;;;;;;;7.47;6.50;;;1.60;93.10;;;;;;5021171;28;20205;-94
2022/12/07 05:35:56;;;;;;;8.57;7.53;;;1.60;93.00;;;;;;5021140;28;20174;-90
2022/12/07 05:38:22;;;;;;;8.00;6.63;;;1.60;93.10;;;;;;5021202;28;20170;-92
2022/12/07 05:40:47;;;;;;;7.83;7.13;;;1.60;93.00;;;;;;5021226;28;20189;-93
2022/12/07 05:43:13;;;;;;;7.73;6.93;;;1.60;93.10;;;;;;5020972;28;20209;-94
2022/12/07 05:45:39;;;;;;;7.70;7.00;;;1.60;93.10;;;;;;5020734;28;20150;-92
2022/12/07 05:48:04;;;;;;;9.17;7.40;;;1.60;93.00;;;;;;5020609;28;20185;-94
2022/12/07 05:50:30;;;;;;;9.00;8.10;;;1.70;93.00;;;;;;5020441;28;20224;-93
2022/12/07 05:52:56;;;;;;;8.57;6.60;;;1.70;93.10;;;;;;5020619;28;20167;-93
2022/12/07 05:55:21;;;;;;;7.87;6.70;;;1.70;93.10;;;;;;5020576;28;20169;-93
2022/12/07 06:00:31;;;;;;;8.50;6.60;;;1.60;93.10;;;;;;5020748;28;20210;-93
2022/12/07 06:02:57;;;;;;;12.23;6.63;;;1.70;93.10;;;;;;5019668;28;20195;-94
2022/12/07 06:05:23;;;;;;;10.87;6.80;;;1.70;93.20;;;;;;5020236;28;20182;-94
2022/12/07 06:07:48;;;;;;;10.13;6.30;;;1.70;93.30;;;;;;5019998;28;20193;-92
2022/12/07 06:10:41;;;;;;;8.40;7.00;;;1.70;93.30;;;;;;5017937;28;20218;-93
2022/12/07 06:13:07;;;;;;;16.43;6.23;;;1.70;93.40;;;;;;5019127;28;20164;-93
2022/12/07 06:15:35;;;;;;;7.90;6.37;;;1.70;93.50;;;;;;5019287;28;20166;-92
2022/12/07 06:18:00;;;;;;;11.93;6.73;;;1.70;93.60;;;;;;5019841;28;20193;-93
2022/12/07 06:20:26;;;;;;;6.97;6.00;;;1.60;93.60;;;;;;5019250;28;20182;-93
2022/12/07 06:22:52;;;;;;;8.80;6.13;;;1.70;93.70;;;;;;5019118;28;20191;-93
2022/12/07 06:25:17;;;;;;;7.23;6.07;;;1.80;93.70;;;;;;5019263;28;20170;-93
2022/12/07 06:27:43;;;;;;;17.60;6.20;;;1.80;93.80;;;;;;5018761;28;20188;-93
2022/12/07 06:30:09;;;;;;;8.60;6.27;;;1.80;93.70;;;;;;5017928;28;20247;-94
2022/12/07 06:32:36;;;;;;;9.77;6.57;;;1.80;93.80;;;;;;5017978;28;20177;-93
2022/12/07 06:35:02;;;;;;;8.60;5.87;;;1.80;93.80;;;;;;5019340;28;20215;-93
2022/12/07 06:37:28;;;;;;;10.37;6.00;;;1.80;93.80;;;;;;5019179;28;20176;-93
2022/12/07 06:39:53;;;;;;;8.50;5.87;;;1.80;93.80;;;;;;5018832;28;20245;-93
2022/12/07 06:42:19;;;;;;;7.40;5.40;;;1.80;93.80;;;;;;5019819;28;20178;-93
2022/12/07 06:44:44;;;;;;;5.23;4.90;;;1.80;93.80;;;;;;5018710;28;20204;-94
2022/12/07 06:47:11;;;;;;;6.10;5.50;;;1.90;93.80;;;;;;5019369;28;20166;-92
2022/12/07 06:49:37;;;;;;;6.90;5.00;;;1.90;93.80;;;;;;5019368;28;20162;-93
2022/12/07 06:52:04;;;;;;;7.67;5.40;;;1.90;93.70;;;;;;5019345;28;20177;-91
2022/12/07 06:54:30;;;;;;;10.40;5.37;;;1.80;93.70;;;;;;5019055;28;20208;-94
2022/12/07 06:56:56;;;;;;;7.20;4.57;;;1.90;93.70;;;;;;5018015;28;20272;-93
2022/12/07 06:59:21;;;;;;;9.77;5.17;;;1.90;93.70;;;;;;5019249;28;20193;-93
2022/12/07 07:01:47;;;;;;;5.67;5.07;;;1.90;93.70;;;;;;5018405;28;20202;-93
2022/12/07 07:04:13;;;;;;;7.37;4.87;;;1.90;93.70;;;;;;5018982;28;20209;-92
2022/12/07 07:06:38;;;;;;;8.23;4.43;;;1.90;93.60;;;;;;5019133;28;20182;-90
2022/12/07 07:09:04;;;;;;;6.80;4.70;;;1.90;93.60;;;;;;5019133;28;20178;-94
2022/12/07 07:11:31;;;;;;;8.00;5.17;;;1.90;93.60;;;;;;5018400;28;20239;-91
2022/12/07 07:13:58;;;;;;;8.30;4.90;;;1.90;93.60;;;;;;5018938;28;20186;-92
2022/12/07 07:16:24;;;;;;;11.00;4.80;;;1.90;93.60;;;;;;5018967;28;20238;-94
2022/12/07 07:18:50;;;;;;;6.17;4.93;;;1.90;93.50;;;;;;5019105;28;20197;-92
2022/12/07 07:21:15;;;;;;;7.73;4.60;;;1.90;93.50;;;;;;5018840;28;20166;-91
2022/12/07 07:23:41;;;;;;;10.03;4.50;;;1.90;93.50;;;;;;5018622;28;20186;-93
2022/12/07 07:26:06;;;;;;;8.83;5.40;;;1.90;93.50;;;;;;5018164;28;20201;-93
2022/12/07 07:28:32;;;;;;;6.40;5.00;;;1.90;93.50;;;;;;5018648;28;20213;-93
2022/12/07 07:30:58;;;;;;;5.20;4.70;;;1.90;93.50;;;;;;5018584;28;20228;-91
2022/12/07 07:33:23;;;;;;;7.37;4.60;;;1.90;93.50;;;;;;5018840;28;20196;-93
2022/12/07 07:35:49;;;;;;;9.90;4.70;;;1.80;93.50;;;;;;5018137;28;20185;-92
2022/12/07 07:38:14;;;;;;;9.03;4.40;;;1.90;93.50;;;;;;5018426;28;20166;-93
2022/12/07 07:40:40;;;;;;;8.63;4.80;;;1.90;93.50;;;;;;5018911;28;20189;-92
2022/12/07 07:43:06;;;;;;;9.27;4.50;;;1.80;93.50;;;;;;5018835;28;20189;-93
2022/12/07 07:45:32;;;;;;;7.77;4.77;;;1.80;93.50;;;;;;5018817;28;20169;-92
2022/12/07 07:47:57;;;;;;;11.63;5.23;;;1.80;93.50;;;;;;5018669;28;20187;-92
2022/12/07 07:50:23;;;;;;;8.63;4.80;;;1.80;93.50;;;;;;5018746;28;20229;-93
2022/12/07 07:52:48;;;;;;;10.13;5.00;;;1.80;93.50;;;;;;5018387;28;20234;-93
2022/12/07 07:55:14;;;;;;;6.17;5.00;;;1.90;93.60;;;;;;5017373;28;20193;-92
2022/12/07 07:57:41;;;;;;;7.33;6.60;;;1.90;93.60;;;;;;5018152;28;20205;-93
2022/12/07 08:00:12;;;;;;;9.90;4.87;;;1.90;93.60;;;;;;5018081;28;20217;-93
2022/12/07 08:02:38;;;;;;;9.43;4.83;;;1.90;93.60;;;;;;5016530;28;20178;-94
2022/12/07 08:05:04;;;;;;;8.57;4.87;;;2.00;93.70;;;;;;5017760;28;20217;-93
2022/12/07 08:07:29;;;;;;;7.53;4.70;;;2.00;93.70;;;;;;5017974;28;20208;-94
2022/12/07 08:09:55;;;;;;;9.30;4.90;;;2.00;93.70;;;;;;5018158;28;20197;-93
2022/12/07 08:12:20;;;;;;;18.23;5.13;;;2.00;93.80;;;;;;5017297;28;20170;-92
2022/12/07 08:14:46;;;;;;;7.37;4.23;;;2.00;93.80;;;;;;5018046;28;20205;-94
2022/12/07 08:17:12;;;;;;;13.00;4.90;;;2.00;93.80;;;;;;5017594;28;20202;-93
2022/12/07 08:19:38;;;;;;;15.40;5.00;;;2.00;93.80;;;;;;5016466;28;20246;-93
2022/12/07 08:22:09;;;;;;;7.33;4.73;;;2.10;93.90;;;;;;5005997;28;20178;-94
2022/12/07 08:24:36;;;;;;;8.93;4.50;;;2.10;93.90;;;;;;5013993;28;20706;-94
2022/12/07 08:27:02;;;;;;;5.33;4.60;;;2.20;93.90;;;;;;5015675;28;20192;-94
2022/12/07 08:29:28;;;;;;;10.53;4.43;;;2.20;93.90;;;;;;5009125;28;20182;-93
2022/12/07 08:31:54;;;;;;;9.87;5.20;;;2.20;93.90;;;;;;5007335;28;20188;-93
2022/12/07 08:34:20;;;;;;;8.00;4.27;;;2.30;93.90;;;;;;5013362;28;20244;-93
2022/12/07 08:36:45;;;;;;;9.00;4.90;;;2.30;93.90;;;;;;5017155;28;20193;-92
2022/12/07 08:39:11;;;;;;;14.00;5.07;;;2.40;93.90;;;;;;5019964;28;20174;-94
2022/12/07 08:41:37;;;;;;;9.10;5.13;;;2.40;93.70;;;;;;5018804;28;20228;-93
2022/12/07 08:44:03;;;;;;;6.30;4.70;;;2.40;93.70;;;;;;5020443;28;20253;-91
2022/12/07 08:46:33;;;;;;;12.00;5.37;;;2.40;93.60;;;;;;5021444;28;20167;-93
2022/12/07 08:49:04;;;;;;;6.83;4.67;;;2.40;93.60;;;;;;5022003;28;20210;-93
2022/12/07 08:51:30;;;;;;;10.50;5.40;;;2.40;93.60;;;;;;5022033;28;20217;-92
2022/12/07 08:53:58;;;;;;;9.10;4.43;;;2.40;93.60;;;;;;5017994;28;20229;-92
2022/12/07 08:56:24;;;;;;;8.97;5.10;;;2.50;93.50;;;;;;5009114;28;20185;-93
2022/12/07 08:58:50;;;;;;;10.57;5.40;;;2.50;93.40;;;;;;5011069;28;20242;-94
2022/12/07 09:01:15;;;;;;;7.03;5.17;;;2.50;93.40;;;;;;5004270;28;20225;-93
2022/12/07 09:03:41;;;;;;;8.40;4.83;;;2.50;93.30;;;;;;5002745;28;20282;-93
2022/12/07 09:06:07;;;;;;;11.27;5.03;;;2.50;93.20;;;;;;5015266;28;20261;-93
2022/12/07 09:08:37;;;;;;;15.03;5.53;;;2.60;93.20;;;;;;5020201;28;20168;-93
2022/12/07 09:11:03;;;;;;;7.43;4.87;;;2.60;93.20;;;;;;5021278;28;20194;-92
2022/12/07 09:13:29;;;;;;;10.27;5.10;;;2.60;93.10;;;;;;5020826;28;20187;-93
2022/12/07 09:15:57;;;;;;;13.80;4.87;;;2.60;93.10;;;;;;5020246;28;20178;-93
2022/12/07 09:31:20;;;;;;;10.27;5.13;;;2.60;93.30;;;;;;1010854;22;20498;-94
2022/12/07 09:33:45;;;;;;;12.03;4.73;;;2.70;93.30;;;;;;5034904;28;20549;-93
2022/12/07 09:36:11;;;;;;;7.43;4.80;;;2.80;93.40;;;;;;5040685;28;20196;-92
2022/12/07 09:38:36;;;;;;;6.43;4.90;;;2.80;93.40;;;;;;5040758;28;20165;-93
2022/12/07 09:41:07;;;;;;;11.47;5.10;;;2.80;93.40;;;;;;5039776;28;20193;-93
2022/12/07 10:06:50;;;;;;;12.20;4.90;;;3.00;93.10;;;;;;4997029;28;20195;-93
2022/12/07 10:09:19;;;;;;;12.40;4.93;;;3.00;92.80;;;;;;4984643;28;20163;-94
2022/12/07 10:11:58;;;;;;;7.90;5.63;;;3.10;92.70;;;;;;4984651;28;20202;-94
2022/12/07 10:14:25;;;;;;;13.90;4.90;;;3.10;92.30;;;;;;4980487;28;20194;-94
2022/12/07 10:16:51;;;;;;;7.47;5.23;;;3.20;92.20;;;;;;4989000;28;20198;-94
2022/12/07 10:19:28;;;;;;;9.93;4.83;;;3.20;92.10;;;;;;4965450;28;20183;-94
2022/12/07 10:25:09;;;;;;;7.60;4.77;;;3.30;92.00;;;;;;5179352;23;20228;-91
2022/12/07 10:27:34;;;;;;;9.17;5.50;;;3.30;92.10;;;;;;5010262;28;20185;-92
2022/12/07 10:30:07;;;;;;;11.33;6.23;;;3.30;92.10;;;;;;5014920;28;20237;-94
2022/12/07 10:32:35;;;;;;;11.20;5.17;;;3.30;91.90;;;;;;5010981;28;20234;-93
2022/12/07 10:35:26;;;;;;;13.37;5.57;;;3.30;91.90;;;;;;5003618;28;20204;-94
2022/12/07 10:37:55;;;;;;;10.97;5.40;;;3.30;91.70;;;;;;5001697;28;20218;-94
2022/12/07 10:40:33;;;;;;;15.43;5.67;;;3.40;91.70;;;;;;5004556;28;20193;-94
2022/12/07 10:43:13;;;;;;;11.43;5.43;;;3.40;91.60;;;;;;5005847;28;20186;-93
2022/12/07 10:45:51;;;;;;;10.97;5.63;;;3.40;91.60;;;;;;5002272;28;20179;-93
2022/12/07 10:48:41;;;;;;;8.10;5.40;;;3.50;91.50;;;;;;5006565;28;20204;-95
2022/12/07 10:51:26;;;;;;;9.43;5.20;;;3.50;91.40;;;;;;5006756;28;20207;-93
2022/12/07 10:54:32;;;;;;;13.13;5.20;;;3.60;91.20;;;;;;5010269;28;20194;-95
2022/12/07 10:57:21;;;;;;;14.73;5.50;;;3.60;90.90;;;;;;5004640;28;20183;-93
2022/12/07 11:00:08;;;;;;;16.03;5.03;;;3.60;90.80;;;;;;5004133;28;20168;-93
2022/12/07 11:02:49;;;;;;;10.67;5.70;;;3.60;90.60;;;;;;5007837;28;20189;-94
2022/12/07 11:05:38;;;;;;;16.13;5.70;;;3.60;89.80;;;;;;5008569;28;20207;-93
2022/12/07 11:08:39;;;;;;;10.73;5.70;;;3.70;89.30;;;;;;5011752;28;20206;-94
2022/12/07 11:11:34;;;;;;;11.40;5.70;;;3.70;89.20;;;;;;5001546;28;20199;-93
2022/12/07 11:14:12;;;;;;;12.00;6.30;;;3.70;88.80;;;;;;5008410;28;20194;-94
2022/12/07 11:16:48;;;;;;;20.83;6.30;;;3.70;88.60;;;;;;5005160;28;20198;-94
2022/12/07 11:19:36;;;;;;;11.23;5.63;;;3.80;88.80;;;;;;5003125;28;20651;-93
2022/12/07 11:22:13;;;;;;;13.47;5.73;;;3.80;89.00;;;;;;5001586;28;20223;-94
2022/12/07 11:25:17;;;;;;;9.50;5.43;;;3.90;89.50;;;;;;5001898;28;20211;-94
2022/12/07 11:27:54;;;;;;;16.90;6.63;;;3.90;89.70;;;;;;4998300;28;20171;-93
2022/12/07 11:30:43;;;;;;;14.87;6.10;;;3.80;88.80;;;;;;5008617;28;20202;-93
2022/12/07 11:33:33;;;;;;;11.10;5.87;;;3.90;88.50;;;;;;4993485;28;20225;-90
2022/12/07 11:36:08;;;;;;;14.03;6.47;;;3.90;88.50;;;;;;4993417;28;20173;-92
2022/12/07 11:38:40;;;;;;;17.03;6.20;;;3.90;88.80;;;;;;4993343;28;20185;-91
2022/12/07 11:41:15;;;;;;;8.87;5.40;;;3.90;89.20;;;;;;4994331;28;20228;-91
2022/12/07 11:44:02;;;;;;;10.13;5.57;;;3.90;89.40;;;;;;4993308;28;20198;-91
2022/12/07 11:46:45;;;;;;;13.43;5.40;;;4.00;89.70;;;;;;4993315;28;20170;-91
2022/12/07 11:49:19;;;;;;;11.63;5.27;;;3.80;89.80;;;;;;4993404;28;20604;-91
2022/12/07 11:51:47;;;;;;;16.83;6.13;;;3.90;90.00;;;;;;4993056;28;20579;-90
2022/12/07 11:54:31;;;;;;;12.43;5.00;;;3.90;90.20;;;;;;4992753;28;20192;-91
2022/12/07 11:57:05;;;;;;;8.67;5.30;;;4.00;90.30;;;;;;4993724;28;20227;-90
2022/12/07 11:59:41;;;;;;;11.30;5.37;;;4.00;90.30;;;;;;4993033;28;20216;-90
2022/12/07 12:02:15;;;;;;;13.60;5.47;;;4.10;90.50;;;;;;4993002;28;20217;-90
2022/12/07 12:04:50;;;;;;;11.93;5.30;;;4.10;90.50;;;;;;4993686;28;20203;-90
2022/12/07 12:07:22;;;;;;;18.37;5.13;;;4.10;90.50;;;;;;4993783;28;20222;-90
2022/12/07 12:10:20;;;;;;;12.87;8.10;;;4.00;90.40;;;;;;4992567;28;20183;-89
2022/12/07 12:13:16;;;;;;;13.43;5.70;;;4.10;90.30;;;;;;4997830;28;20177;-90
2022/12/07 12:16:05;;;;;;;8.47;5.90;;;4.10;89.90;;;;;;4999095;28;20192;-90
2022/12/07 12:18:44;;;;;;;13.00;5.90;;;4.20;89.50;;;;;;4999703;28;20190;-90
2022/12/07 12:21:15;;;;;;;11.17;6.07;;;4.40;89.10;;;;;;4999208;28;20298;-90
2022/12/07 12:23:47;;;;;;;9.53;5.60;;;4.50;88.90;;;;;;4999642;28;20197;-90
2022/12/07 12:26:25;;;;;;;12.53;5.50;;;4.70;89.10;;;;;;4999116;28;20180;-90
2022/12/07 12:28:59;;;;;;;9.77;5.30;;;4.90;89.10;;;;;;4999031;28;20279;-90
2022/12/07 12:31:27;;;;;;;9.73;5.60;;;4.90;89.10;;;;;;4999090;28;20203;-90
2022/12/07 12:33:55;;;;;;;15.13;6.00;;;5.00;89.10;;;;;;4999027;28;20200;-89
2022/12/07 12:36:43;;;;;;;16.70;6.07;;;4.90;88.20;;;;;;4999000;28;20546;-90
2022/12/07 12:39:10;;;;;;;11.73;6.37;;;4.90;87.60;;;;;;4998914;28;20173;-89
2022/12/07 12:41:40;;;;;;;14.43;7.40;;;4.80;87.00;;;;;;4998859;28;20256;-90
2022/12/07 12:44:15;;;;;;;11.57;6.40;;;4.80;86.90;;;;;;4998862;28;20198;-90
2022/12/07 12:46:59;;;;;;;16.13;6.80;;;4.80;86.40;;;;;;4998897;28;20176;-90
2022/12/07 12:49:24;;;;;;;20.30;7.20;;;4.70;85.60;;;;;;4999494;28;20625;-90
2022/12/07 12:52:08;;;;;;;9.20;6.40;;;4.70;85.60;;;;;;4998744;28;20271;-90
2022/12/07 12:54:36;;;;;;;11.70;6.17;;;4.60;85.30;;;;;;4998678;28;20300;-90
2022/12/07 12:57:09;;;;;;;11.90;7.63;;;4.50;84.80;;;;;;4998782;28;20232;-90
2022/12/07 12:59:39;;;;;;;9.13;7.03;;;4.40;83.50;;;;;;4998836;28;20227;-90
2022/12/07 13:02:21;;;;;;;18.83;7.70;;;4.50;83.40;;;;;;4998905;28;20180;-92
2022/12/07 13:05:16;;;;;;;9.53;8.30;;;4.30;81.80;;;;;;4999017;28;20628;-89
2022/12/07 13:07:47;;;;;;;9.70;7.90;;;4.30;80.60;;;;;;4999225;28;20177;-89
2022/12/07 13:10:22;;;;;;;12.10;7.80;;;4.30;80.50;;;;;;4998637;28;20200;-89
2022/12/07 13:13:08;;;;;;;10.53;8.30;;;4.30;79.20;;;;;;4998747;28;20187;-90
2022/12/07 13:15:34;;;;;;;10.77;8.00;;;4.30;78.80;;;;;;4998695;28;20195;-90
2022/12/07 13:18:03;;;;;;;13.00;8.10;;;4.20;79.30;;;;;;4998795;28;20648;-89
2022/12/07 13:21:06;;;;;;;10.60;7.63;;;4.30;79.50;;;;;;4999178;28;20216;-90
2022/12/07 13:23:55;;;;;;;11.87;7.77;;;4.30;79.80;;;;;;4921865;29;20689;-89
2022/12/07 13:26:29;;;;;;;10.23;7.77;;;4.30;80.00;;;;;;4993578;28;20202;-90
2022/12/07 13:29:07;;;;;;;9.43;6.90;;;4.30;79.70;;;;;;4995445;28;20165;-90
2022/12/07 13:31:39;;;;;;;11.43;7.50;;;4.40;79.90;;;;;;4995344;28;20200;-89
2022/12/07 13:34:32;;;;;;;9.73;7.80;;;4.40;78.20;;;;;;4995227;28;20192;-89
2022/12/07 13:37:12;;;;;;;9.23;7.37;;;4.50;78.50;;;;;;4996102;28;20170;-90
2022/12/07 13:39:59;;;;;;;10.57;8.40;;;4.50;78.10;;;;;;4996109;28;20223;-90
2022/12/07 13:42:29;;;;;;;12.53;7.10;;;4.50;78.30;;;;;;4995266;28;20334;-89
2022/12/07 13:44:57;;;;;;;8.50;7.60;;;4.40;77.70;;;;;;4995206;28;20261;-90
2022/12/07 13:47:43;;;;;;;11.20;7.23;;;4.40;76.70;;;;;;4995153;28;20207;-90
2022/12/07 13:50:29;;;;;;;14.70;7.87;;;4.30;78.20;;;;;;4995117;28;20201;-90
2022/12/07 13:52:56;;;;;;;14.80;7.80;;;4.30;78.80;;;;;;4995923;28;20179;-90
2022/12/07 13:55:22;;;;;;;10.57;8.20;;;4.30;79.40;;;;;;4995541;28;20263;-90
2022/12/07 13:57:51;;;;;;;11.43;7.60;;;4.30;79.30;;;;;;4994928;28;20718;-90